Time;durP1;ratioP1;P1;durP2;ratioP2;P2;SDS_P1;SDS_P2;PMS_P1;PMS_P2;Temp;Humidity;BMP_temperature;BMP_pressure;BME280_temperature;BME280_humidity;BME280_pressure;Samples;Min_cycle;Max_cycle;Signal;HPM_P1;HPM_P2
2022/05/24 00:01:50;;;;;;;;;;;21.90;46.00;;;;;;4953678;28;19926;-46
2022/05/24 00:04:17;;;;;;;;;;;21.90;46.00;;;;;;4938006;29;20030;-48
2022/05/24 00:06:44;;;;;;;;;;;21.90;46.10;;;;;;4939383;28;19930;-47
2022/05/24 00:09:11;;;;;;;;;;;21.90;46.10;;;;;;4939579;28;19958;-48
2022/05/24 00:11:37;;;;;;;;;;;21.90;46.10;;;;;;4954651;28;19970;-48
2022/05/24 00:14:04;;;;;;;;;;;21.90;46.10;;;;;;4955369;28;20376;-48
2022/05/24 00:16:32;;;;;;;;;;;21.90;46.10;;;;;;4950281;28;19930;-45
2022/05/24 00:19:00;;;;;;;;;;;21.90;46.20;;;;;;4959286;28;19927;-50
2022/05/24 00:21:27;;;;;;;;;;;21.90;46.20;;;;;;4945292;29;19927;-49
2022/05/24 00:23:54;;;;;;;;;;;21.90;46.20;;;;;;4921343;28;19935;-48
2022/05/24 00:26:22;;;;;;;;;;;21.90;46.20;;;;;;4952429;28;19931;-46
2022/05/24 00:28:49;;;;;;;;;;;21.90;46.30;;;;;;4936647;29;19927;-44
2022/05/24 00:31:15;;;;;;;;;;;21.90;46.30;;;;;;4937517;29;19980;-47
2022/05/24 00:33:44;;;;;;;;;;;21.90;46.30;;;;;;4922501;29;20347;-47
2022/05/24 00:36:11;;;;;;;;;;;21.90;46.30;;;;;;4925212;28;19999;-46
2022/05/24 00:38:38;;;;;;;;;;;21.90;46.30;;;;;;4936361;28;19931;-47
2022/05/24 00:41:10;;;;;;;;;;;21.90;46.30;;;;;;4935553;28;19981;-48
2022/05/24 00:43:37;;;;;;;;;;;21.90;46.30;;;;;;4937472;29;20430;-49
2022/05/24 00:46:04;;;;;;;;;;;21.90;46.30;;;;;;4939033;29;19949;-45
2022/05/24 00:48:32;;;;;;;;;;;21.90;46.30;;;;;;4918603;28;19974;-48
2022/05/24 00:51:00;;;;;;;;;;;21.90;46.30;;;;;;4931224;28;20451;-47
2022/05/24 00:53:27;;;;;;;;;;;21.90;46.40;;;;;;4945266;28;19927;-51
2022/05/24 00:55:54;;;;;;;;;;;21.90;46.40;;;;;;4953935;28;19977;-49
2022/05/24 00:58:24;;;;;;;;;;;21.90;46.40;;;;;;4938499;28;19931;-47
2022/05/24 01:00:50;;;;;;;;;;;21.90;46.40;;;;;;4939747;29;20376;-50
2022/05/24 01:03:17;;;;;;;;;;;21.90;46.40;;;;;;4937698;28;19934;-48
2022/05/24 01:05:44;;;;;;;;;;;22.00;46.50;;;;;;4939122;28;20388;-45
2022/05/24 01:08:12;;;;;;;;;;;21.90;46.40;;;;;;4932613;28;19928;-52
2022/05/24 01:10:39;;;;;;;;;;;21.90;46.40;;;;;;4949817;28;20025;-49
2022/05/24 01:13:07;;;;;;;;;;;22.00;46.50;;;;;;4936872;29;19949;-47
2022/05/24 01:15:34;;;;;;;;;;;21.90;46.40;;;;;;4935700;28;19926;-45
2022/05/24 01:18:00;;;;;;;;;;;22.00;46.50;;;;;;4952406;28;19935;-47
2022/05/24 01:20:27;;;;;;;;;;;22.00;46.50;;;;;;4937158;29;19934;-52
2022/05/24 01:23:18;;;;;;;;;;;21.90;46.40;;;;;;4936572;29;20380;-46
2022/05/24 01:25:49;;;;;;;;;;;22.00;46.50;;;;;;4957396;28;19976;-51
2022/05/24 01:28:18;;;;;;;;;;;22.00;46.50;;;;;;4936452;28;19927;-48
2022/05/24 01:30:44;;;;;;;;;;;21.90;46.40;;;;;;4941281;29;20025;-46
2022/05/24 01:36:15;;;;;;;;;;;21.90;46.50;;;;;;4909467;28;19931;-48
2022/05/24 01:38:44;;;;;;;;;;;21.90;46.50;;;;;;4927089;28;19927;-47
2022/05/24 01:41:12;;;;;;;;;;;21.90;46.60;;;;;;4908226;28;19946;-52
2022/05/24 01:43:42;;;;;;;;;;;21.90;46.60;;;;;;4923194;28;19981;-50
2022/05/24 01:46:10;;;;;;;;;;;21.90;47.20;;;;;;4928963;29;19933;-51
2022/05/24 01:48:37;;;;;;;;;;;21.90;46.70;;;;;;4927546;29;19927;-50
2022/05/24 01:51:04;;;;;;;;;;;21.90;46.80;;;;;;4928445;28;19927;-48
2022/05/24 01:53:32;;;;;;;;;;;22.00;46.90;;;;;;4942123;28;19958;-49
2022/05/24 01:55:58;;;;;;;;;;;21.90;46.90;;;;;;4936688;28;20372;-48
2022/05/24 01:58:26;;;;;;;;;;;22.00;47.00;;;;;;4946110;28;19950;-49
2022/05/24 02:00:57;;;;;;;;;;;22.00;47.10;;;;;;4934528;28;20391;-45
2022/05/24 02:03:24;;;;;;;;;;;22.00;47.70;;;;;;4923584;28;19927;-46
2022/05/24 02:05:50;;;;;;;;;;;22.00;47.20;;;;;;4922412;28;20045;-44
2022/05/24 02:08:17;;;;;;;;;;;22.00;47.30;;;;;;4922877;28;19963;-44
2022/05/24 02:10:45;;;;;;;;;;;22.00;47.30;;;;;;4934475;28;20406;-45
2022/05/24 02:13:12;;;;;;;;;;;22.00;47.40;;;;;;4952175;28;19973;-52
2022/05/24 02:15:39;;;;;;;;;;;22.00;47.40;;;;;;4952070;28;19977;-51
2022/05/24 02:18:08;;;;;;;;;;;22.00;47.50;;;;;;4951266;28;20021;-50
2022/05/24 02:20:36;;;;;;;;;;;22.00;47.50;;;;;;4923991;28;19954;-47
2022/05/24 02:23:03;;;;;;;;;;;22.00;47.60;;;;;;4933281;28;20281;-49
2022/05/24 02:25:30;;;;;;;;;;;22.00;47.70;;;;;;4941621;28;19938;-46
2022/05/24 02:27:57;;;;;;;;;;;22.00;47.70;;;;;;4919337;28;19927;-45
2022/05/24 02:30:24;;;;;;;;;;;22.00;47.70;;;;;;4934959;29;19927;-46
2022/05/24 02:32:51;;;;;;;;;;;22.00;47.70;;;;;;4947760;29;20449;-49
2022/05/24 02:35:19;;;;;;;;;;;22.00;47.80;;;;;;4935867;29;20018;-47
2022/05/24 02:37:45;;;;;;;;;;;22.00;47.90;;;;;;4944487;28;20025;-50
2022/05/24 02:42:57;;;;;;;;;;;22.00;47.90;;;;;;4932800;28;19945;-48
2022/05/24 02:45:23;;;;;;;;;;;22.00;48.00;;;;;;4937137;28;20384;-45
2022/05/24 02:47:50;;;;;;;;;;;22.00;48.00;;;;;;4947820;28;19934;-45
2022/05/24 02:50:21;;;;;;;;;;;22.00;48.10;;;;;;4934485;28;20170;-45
2022/05/24 02:52:48;;;;;;;;;;;22.00;48.10;;;;;;4935989;28;19938;-50
2022/05/24 02:55:14;;;;;;;;;;;22.00;48.20;;;;;;4936353;29;19927;-49
2022/05/24 02:57:41;;;;;;;;;;;21.90;48.10;;;;;;4916696;28;19981;-49
2022/05/24 03:00:09;;;;;;;;;;;22.00;48.20;;;;;;4941975;28;19937;-46
2022/05/24 03:02:35;;;;;;;;;;;22.00;48.30;;;;;;4938262;29;20453;-47
2022/05/24 03:05:03;;;;;;;;;;;21.90;48.20;;;;;;4936587;29;19927;-45
2022/05/24 03:10:15;;;;;;;;;;;22.00;48.30;;;;;;4935006;29;19931;-50
2022/05/24 03:15:26;;;;;;;;;;;21.90;48.20;;;;;;4929651;28;20380;-49
2022/05/24 03:17:53;;;;;;;;;;;21.90;48.30;;;;;;4937367;28;19935;-47
2022/05/24 03:20:20;;;;;;;;;;;21.90;48.30;;;;;;4936178;28;19926;-47
2022/05/24 03:22:49;;;;;;;;;;;22.00;48.30;;;;;;4935482;28;20426;-46
2022/05/24 03:25:15;;;;;;;;;;;21.90;48.30;;;;;;4935650;29;19927;-46
2022/05/24 03:27:42;;;;;;;;;;;21.90;48.30;;;;;;4957243;28;19971;-47
2022/05/24 03:30:09;;;;;;;;;;;21.90;48.30;;;;;;4927913;28;19933;-45
2022/05/24 03:32:36;;;;;;;;;;;21.90;48.20;;;;;;4928199;28;20558;-47
2022/05/24 03:35:03;;;;;;;;;;;21.90;48.30;;;;;;4925496;28;19930;-49
2022/05/24 03:37:29;;;;;;;;;;;21.90;48.30;;;;;;4935394;29;19927;-46
2022/05/24 03:39:57;;;;;;;;;;;21.90;48.20;;;;;;4936390;28;19927;-47
2022/05/24 03:42:24;;;;;;;;;;;21.90;48.30;;;;;;4948791;28;19970;-45
2022/05/24 03:44:51;;;;;;;;;;;21.90;48.30;;;;;;4939168;28;19933;-47
2022/05/24 03:47:17;;;;;;;;;;;21.90;48.30;;;;;;4953239;28;19938;-46
2022/05/24 03:49:44;;;;;;;;;;;21.90;48.30;;;;;;4952402;28;19981;-45
2022/05/24 03:52:11;;;;;;;;;;;21.90;48.30;;;;;;4937564;29;19930;-50
2022/05/24 03:54:37;;;;;;;;;;;21.90;48.30;;;;;;4950774;28;19930;-48
2022/05/24 03:59:50;;;;;;;;;;;21.90;48.30;;;;;;4937032;29;19957;-45
2022/05/24 04:02:16;;;;;;;;;;;21.90;48.30;;;;;;4927804;29;20033;-48
2022/05/24 04:04:44;;;;;;;;;;;21.90;48.30;;;;;;4919002;28;19973;-47
2022/05/24 04:07:11;;;;;;;;;;;21.90;48.30;;;;;;4950962;28;19927;-46
2022/05/24 04:09:37;;;;;;;;;;;21.90;48.30;;;;;;4952245;28;19933;-45
2022/05/24 04:12:06;;;;;;;;;;;21.90;48.30;;;;;;4945642;28;19927;-46
2022/05/24 04:14:33;;;;;;;;;;;21.90;48.30;;;;;;4935073;28;19927;-46
2022/05/24 04:17:00;;;;;;;;;;;21.90;48.30;;;;;;4934259;28;19966;-47
2022/05/24 04:19:27;;;;;;;;;;;21.90;48.30;;;;;;4952142;28;19981;-46
2022/05/24 04:21:53;;;;;;;;;;;21.90;48.30;;;;;;4935152;28;19984;-50
2022/05/24 04:24:20;;;;;;;;;;;21.90;48.40;;;;;;4934804;29;19927;-47
2022/05/24 04:26:47;;;;;;;;;;;21.90;48.40;;;;;;4934091;28;20029;-47
2022/05/24 04:29:15;;;;;;;;;;;21.90;48.40;;;;;;4940505;29;19984;-46
2022/05/24 04:31:42;;;;;;;;;;;21.90;48.40;;;;;;4938608;28;19973;-45
2022/05/24 04:34:09;;;;;;;;;;;21.90;48.40;;;;;;4938774;28;20002;-46
2022/05/24 04:36:36;;;;;;;;;;;21.90;48.40;;;;;;4934963;29;20017;-49
2022/05/24 04:39:02;;;;;;;;;;;21.90;48.40;;;;;;4952809;28;19927;-46
2022/05/24 04:44:13;;;;;;;;;;;21.90;48.30;;;;;;4953701;28;19958;-48
2022/05/24 04:49:25;;;;;;;;;;;21.90;48.30;;;;;;4968960;28;19945;-46
2022/05/24 04:51:53;;;;;;;;;;;21.90;48.30;;;;;;4948916;28;19934;-51
2022/05/24 04:54:19;;;;;;;;;;;21.90;48.30;;;;;;4952341;28;20396;-49
2022/05/24 04:56:47;;;;;;;;;;;21.90;48.30;;;;;;4946804;28;20038;-49
2022/05/24 04:59:13;;;;;;;;;;;21.90;48.30;;;;;;4930144;28;19927;-51
2022/05/24 05:01:41;;;;;;;;;;;21.90;48.30;;;;;;4930077;28;20362;-47
2022/05/24 05:04:08;;;;;;;;;;;21.90;48.30;;;;;;4937473;28;20287;-50
2022/05/24 05:06:35;;;;;;;;;;;21.90;48.40;;;;;;4935764;28;19982;-47
2022/05/24 05:09:01;;;;;;;;;;;21.90;48.40;;;;;;4936921;28;19927;-47
2022/05/24 05:11:28;;;;;;;;;;;21.90;48.40;;;;;;4951467;28;19969;-47
2022/05/24 05:13:55;;;;;;;;;;;21.90;48.50;;;;;;4937146;29;19927;-50
2022/05/24 05:16:21;;;;;;;;;;;21.90;48.40;;;;;;4923400;28;19995;-48
2022/05/24 05:18:50;;;;;;;;;;;21.90;48.50;;;;;;4927263;28;20006;-46
2022/05/24 05:21:17;;;;;;;;;;;21.90;48.50;;;;;;4933146;28;20029;-52
2022/05/24 05:23:43;;;;;;;;;;;21.90;48.50;;;;;;4950791;28;20284;-46
2022/05/24 05:26:10;;;;;;;;;;;21.90;48.50;;;;;;4936164;28;19927;-50
2022/05/24 05:28:37;;;;;;;;;;;21.90;48.50;;;;;;4936546;28;19927;-52
2022/05/24 05:31:22;;;;;;;;;;;21.90;48.40;;;;;;4920407;28;19986;-47
2022/05/24 05:33:51;;;;;;;;;;;21.90;49.00;;;;;;4944927;28;20356;-51
2022/05/24 05:36:17;;;;;;;;;;;21.80;48.40;;;;;;4934308;28;19937;-49
2022/05/24 05:38:46;;;;;;;;;;;21.90;48.50;;;;;;4938172;28;19965;-46
2022/05/24 05:41:13;;;;;;;;;;;21.90;48.40;;;;;;4937606;28;20365;-48
2022/05/24 05:43:39;;;;;;;;;;;21.80;48.40;;;;;;4925703;28;19949;-52
2022/05/24 05:46:07;;;;;;;;;;;21.90;48.40;;;;;;4923515;28;20410;-49
2022/05/24 05:48:34;;;;;;;;;;;21.90;48.40;;;;;;4936015;28;19949;-52
2022/05/24 05:51:02;;;;;;;;;;;21.80;48.30;;;;;;4931471;28;19934;-52
2022/05/24 05:53:28;;;;;;;;;;;21.90;48.30;;;;;;4931538;28;19937;-51
2022/05/24 05:55:55;;;;;;;;;;;21.80;48.30;;;;;;4936110;29;19927;-48
2022/05/24 05:58:22;;;;;;;;;;;21.80;48.30;;;;;;4934824;28;19926;-48
2022/05/24 06:00:49;;;;;;;;;;;21.90;48.30;;;;;;4930777;28;19958;-51
2022/05/24 06:03:15;;;;;;;;;;;21.80;48.30;;;;;;4935237;29;19927;-49
2022/05/24 06:05:43;;;;;;;;;;;21.80;48.30;;;;;;4936559;28;19940;-50
2022/05/24 06:08:11;;;;;;;;;;;21.80;48.30;;;;;;4948039;28;19931;-49
2022/05/24 06:10:38;;;;;;;;;;;21.80;48.30;;;;;;4930779;29;19957;-48
2022/05/24 06:13:05;;;;;;;;;;;21.90;48.40;;;;;;4934975;28;19941;-49
2022/05/24 06:15:32;;;;;;;;;;;21.90;48.40;;;;;;4933818;28;19985;-48
2022/05/24 06:17:58;;;;;;;;;;;21.80;48.40;;;;;;4932869;29;19957;-47
2022/05/24 06:20:27;;;;;;;;;;;21.80;48.40;;;;;;4948896;28;20058;-51
2022/05/24 06:22:55;;;;;;;;;;;21.80;48.40;;;;;;4943684;28;19950;-53
2022/05/24 06:25:23;;;;;;;;;;;21.80;48.30;;;;;;4935718;28;20426;-52
2022/05/24 06:27:50;;;;;;;;;;;21.80;48.30;;;;;;4932993;28;19997;-47
2022/05/24 06:30:20;;;;;;;;;;;21.90;48.40;;;;;;4959739;28;19927;-50
2022/05/24 06:32:47;;;;;;;;;;;21.90;48.40;;;;;;4934599;29;19927;-51
2022/05/24 06:35:14;;;;;;;;;;;21.90;48.40;;;;;;4934239;29;19966;-49
2022/05/24 06:37:42;;;;;;;;;;;21.80;48.30;;;;;;4949361;28;19930;-51
2022/05/24 06:40:09;;;;;;;;;;;21.80;48.30;;;;;;4931583;28;19931;-50
2022/05/24 06:42:37;;;;;;;;;;;21.80;48.30;;;;;;4934460;28;19950;-47
2022/05/24 06:45:05;;;;;;;;;;;21.80;48.30;;;;;;4934005;28;19970;-47
2022/05/24 06:47:32;;;;;;;;;;;21.80;48.30;;;;;;4927442;28;19954;-48
2022/05/24 06:49:59;;;;;;;;;;;21.90;48.40;;;;;;4938472;28;19935;-50
2022/05/24 06:52:26;;;;;;;;;;;21.90;48.40;;;;;;4956082;28;19927;-51
2022/05/24 06:54:54;;;;;;;;;;;21.90;48.40;;;;;;4945078;28;19927;-49
2022/05/24 06:57:21;;;;;;;;;;;21.90;48.40;;;;;;4934197;29;19927;-47
2022/05/24 07:02:33;;;;;;;;;;;21.80;48.30;;;;;;4929678;29;19937;-47
2022/05/24 07:05:00;;;;;;;;;;;21.90;48.30;;;;;;4931634;29;20459;-50
2022/05/24 07:07:27;;;;;;;;;;;21.90;48.40;;;;;;4923315;29;19987;-50
2022/05/24 07:09:54;;;;;;;;;;;21.90;48.50;;;;;;4934584;28;20029;-46
2022/05/24 07:12:20;;;;;;;;;;;21.90;48.60;;;;;;4939331;28;20430;-47
2022/05/24 07:14:48;;;;;;;;;;;21.90;48.60;;;;;;5010395;28;19934;-46
2022/05/24 07:17:15;;;;;;;;;;;21.90;48.60;;;;;;4928780;28;19930;-46
2022/05/24 07:19:42;;;;;;;;;;;21.90;48.70;;;;;;4944500;28;20161;-49
2022/05/24 07:22:08;;;;;;;;;;;21.90;48.70;;;;;;4923833;28;19963;-46
2022/05/24 07:24:35;;;;;;;;;;;21.90;48.70;;;;;;4931967;29;19931;-46
2022/05/24 07:27:04;;;;;;;;;;;22.00;48.80;;;;;;4931858;29;20487;-47
2022/05/24 07:29:32;;;;;;;;;;;22.00;48.80;;;;;;4932633;28;20439;-49
2022/05/24 07:32:00;;;;;;;;;;;22.00;48.80;;;;;;4931236;29;19981;-44
2022/05/24 07:34:27;;;;;;;;;;;22.00;48.80;;;;;;4928095;28;19934;-52
2022/05/24 07:36:54;;;;;;;;;;;22.00;49.40;;;;;;4930466;29;19938;-45
2022/05/24 07:39:21;;;;;;;;;;;22.00;48.90;;;;;;4947844;28;19974;-51
2022/05/24 07:47:32;;;;;;;;;;;22.10;49.00;;;;;;4926266;28;19973;-51
2022/05/24 07:49:59;;;;;;;;;;;22.10;49.00;;;;;;4929437;28;19927;-49
2022/05/24 07:52:26;;;;;;;;;;;22.10;49.00;;;;;;4928019;28;19949;-49
2022/05/24 07:54:53;;;;;;;;;;;22.10;49.00;;;;;;4939176;28;19957;-49
2022/05/24 07:57:20;;;;;;;;;;;22.10;49.00;;;;;;4928423;28;20033;-51
2022/05/24 07:59:48;;;;;;;;;;;22.20;49.00;;;;;;4930120;28;19999;-51
2022/05/24 08:02:16;;;;;;;;;;;22.10;49.00;;;;;;4932371;29;19935;-45
2022/05/24 08:04:45;;;;;;;;;;;22.10;49.00;;;;;;4928918;28;19927;-44
2022/05/24 08:07:12;;;;;;;;;;;22.10;49.00;;;;;;4927823;28;19972;-48
2022/05/24 08:09:39;;;;;;;;;;;22.10;49.00;;;;;;4928209;28;20287;-51
2022/05/24 08:12:06;;;;;;;;;;;22.20;49.10;;;;;;4926222;28;20018;-49
2022/05/24 08:14:33;;;;;;;;;;;22.20;49.10;;;;;;4928721;29;20003;-47
2022/05/24 08:16:59;;;;;;;;;;;22.20;49.10;;;;;;4947333;28;20020;-50
2022/05/24 08:19:26;;;;;;;;;;;22.20;49.10;;;;;;4929746;28;19947;-45
2022/05/24 08:21:55;;;;;;;;;;;22.20;49.10;;;;;;4932160;29;20010;-50
2022/05/24 08:24:21;;;;;;;;;;;22.20;49.10;;;;;;4924326;29;20026;-47
2022/05/24 08:26:48;;;;;;;;;;;22.20;49.20;;;;;;4930689;28;19931;-48
2022/05/24 08:29:15;;;;;;;;;;;22.20;49.10;;;;;;4948017;28;19954;-46
2022/05/24 08:31:42;;;;;;;;;;;22.30;49.20;;;;;;4935985;28;19981;-45
2022/05/24 08:34:09;;;;;;;;;;;22.20;49.10;;;;;;4931701;28;19927;-48
2022/05/24 08:36:37;;;;;;;;;;;22.20;49.10;;;;;;4934083;28;20029;-50
2022/05/24 08:39:05;;;;;;;;;;;22.30;49.20;;;;;;4933131;28;19949;-45
2022/05/24 08:41:34;;;;;;;;;;;22.20;49.10;;;;;;4953963;28;20030;-51
2022/05/24 08:48:22;;;;;;;;;;;22.30;49.20;;;;;;4936639;29;20020;-47
2022/05/24 08:49:36;;;;;;;;;;;22.30;49.20;;;;;;4923683;29;19928;-55
2022/05/24 08:52:04;;;;;;;;;;;22.30;49.20;;;;;;4929987;28;19989;-46
2022/05/24 08:54:34;;;;;;;;;;;22.30;49.20;;;;;;4931527;28;19931;-46
2022/05/24 08:57:03;;;;;;;;;;;22.30;49.20;;;;;;4920055;29;20424;-48
2022/05/24 08:59:30;;;;;;;;;;;22.30;49.70;;;;;;4926924;28;20307;-48
2022/05/24 09:01:57;;;;;;;;;;;22.30;49.10;;;;;;4936440;28;20510;-49
2022/05/24 09:04:24;;;;;;;;;;;22.30;49.10;;;;;;4933386;29;20288;-50
2022/05/24 09:06:54;;;;;;;;;;;22.30;49.20;;;;;;4930243;29;19938;-52
2022/05/24 09:09:25;;;;;;;;;;;22.30;49.20;;;;;;4940918;28;19934;-51
2022/05/24 09:11:56;;;;;;;;;;;22.30;49.10;;;;;;4928948;29;19931;-46
2022/05/24 09:14:26;;;;;;;;;;;22.30;49.10;;;;;;4922691;29;19926;-48
2022/05/24 09:16:54;;;;;;;;;;;22.30;49.10;;;;;;4929808;29;19927;-51
2022/05/24 09:19:23;;;;;;;;;;;22.30;49.10;;;;;;4944475;28;19946;-46
2022/05/24 09:21:52;;;;;;;;;;;22.30;49.10;;;;;;4939469;28;19938;-47
2022/05/24 09:24:25;;;;;;;;;;;22.40;49.20;;;;;;4926197;29;19993;-60
2022/05/24 09:27:03;;;;;;;;;;;22.40;49.20;;;;;;4929608;29;19977;-56
2022/05/24 09:29:31;;;;;;;;;;;22.40;49.20;;;;;;4927336;28;20012;-56
2022/05/24 09:31:58;;;;;;;;;;;22.40;49.20;;;;;;4928491;29;19932;-55
2022/05/24 09:34:26;;;;;;;;;;;22.40;49.20;;;;;;4945875;28;19981;-57
2022/05/24 09:36:54;;;;;;;;;;;22.40;49.10;;;;;;4941081;28;19931;-57
2022/05/24 09:39:22;;;;;;;;;;;22.40;49.10;;;;;;4941690;28;20321;-57
2022/05/24 09:41:53;;;;;;;;;;;22.40;49.00;;;;;;4946114;28;20017;-57
2022/05/24 09:44:21;;;;;;;;;;;22.40;49.10;;;;;;4941768;28;20406;-56
2022/05/24 09:46:48;;;;;;;;;;;22.40;49.00;;;;;;4943582;28;19931;-58
2022/05/24 09:49:33;;;;;;;;;;;22.40;49.00;;;;;;4929095;29;19943;-56
2022/05/24 09:52:08;;;;;;;;;;;22.40;49.00;;;;;;4944692;28;19931;-58
2022/05/24 09:54:37;;;;;;;;;;;22.40;49.00;;;;;;4923052;29;20041;-55
2022/05/24 09:57:05;;;;;;;;;;;22.40;49.00;;;;;;4937866;28;19927;-57
2022/05/24 09:59:34;;;;;;;;;;;22.40;49.00;;;;;;4948194;28;19931;-57
2022/05/24 10:02:02;;;;;;;;;;;22.40;49.30;;;;;;4926310;28;20003;-58
2022/05/24 10:04:29;;;;;;;;;;;22.40;49.00;;;;;;4928320;29;19926;-58
2022/05/24 10:06:57;;;;;;;;;;;22.40;49.00;;;;;;4949427;28;19931;-55
2022/05/24 10:09:35;;;;;;;;;;;22.40;49.00;;;;;;4940745;28;20411;-55
2022/05/24 10:12:03;;;;;;;;;;;22.40;48.90;;;;;;4926350;28;19930;-56
2022/05/24 10:14:31;;;;;;;;;;;22.40;49.00;;;;;;4927019;28;20013;-57
2022/05/24 10:17:01;;;;;;;;;;;22.40;48.90;;;;;;4928836;29;19931;-58
2022/05/24 10:19:34;;;;;;;;;;;22.40;49.00;;;;;;4926669;28;19935;-57
2022/05/24 10:22:03;;;;;;;;;;;22.40;48.90;;;;;;5006247;28;19961;-58
2022/05/24 10:24:37;;;;;;;;;;;22.40;48.90;;;;;;4942929;28;19969;-58
2022/05/24 10:27:05;;;;;;;;;;;22.40;48.90;;;;;;5010608;28;19927;-58
2022/05/24 10:29:35;;;;;;;;;;;22.40;48.90;;;;;;4924440;29;20136;-60
2022/05/24 10:32:05;;;;;;;;;;;22.40;48.90;;;;;;4949204;28;19959;-59
2022/05/24 10:40:13;;;;;;;;;;;22.40;48.80;;;;;;4927835;28;19930;-57
2022/05/24 10:42:44;;;;;;;;;;;22.40;48.80;;;;;;4949000;28;19937;-56
2022/05/24 10:45:11;;;;;;;;;;;22.40;48.80;;;;;;4924481;29;19954;-57
2022/05/24 10:47:40;;;;;;;;;;;22.40;48.80;;;;;;4942000;28;19981;-56
2022/05/24 10:50:08;;;;;;;;;;;22.40;48.80;;;;;;4927798;29;19934;-59
2022/05/24 10:52:36;;;;;;;;;;;22.40;48.80;;;;;;4938260;28;19930;-57
2022/05/24 10:55:04;;;;;;;;;;;22.40;48.80;;;;;;4946023;28;19931;-53
2022/05/24 10:57:31;;;;;;;;;;;22.40;48.90;;;;;;4927714;28;20033;-55
2022/05/24 11:00:00;;;;;;;;;;;22.40;48.80;;;;;;4930664;29;20391;-56
2022/05/24 11:02:30;;;;;;;;;;;22.40;48.80;;;;;;4929550;28;20053;-52
2022/05/24 11:05:00;;;;;;;;;;;22.40;48.90;;;;;;4945768;28;20424;-54
2022/05/24 11:07:27;;;;;;;;;;;22.40;48.80;;;;;;4934810;28;20322;-55
2022/05/24 11:09:55;;;;;;;;;;;22.40;48.80;;;;;;4930600;28;20011;-59
2022/05/24 11:12:23;;;;;;;;;;;22.40;48.80;;;;;;4930771;29;19934;-55
2022/05/24 11:14:51;;;;;;;;;;;22.40;48.90;;;;;;4937738;28;19927;-54
2022/05/24 11:17:18;;;;;;;;;;;22.30;48.80;;;;;;4923994;28;19933;-55
2022/05/24 11:19:45;;;;;;;;;;;22.40;48.90;;;;;;4920654;28;19935;-53
2022/05/24 11:22:19;;;;;;;;;;;22.30;48.80;;;;;;4928628;28;19927;-55
2022/05/24 11:24:47;;;;;;;;;;;22.40;48.90;;;;;;4925906;29;19927;-56
2022/05/24 11:27:14;;;;;;;;;;;22.30;48.80;;;;;;4928084;28;20358;-56
2022/05/24 11:29:43;;;;;;;;;;;22.40;48.90;;;;;;4926486;29;19939;-57
2022/05/24 11:32:11;;;;;;;;;;;22.30;48.80;;;;;;4924929;28;20355;-56
2022/05/24 11:34:38;;;;;;;;;;;22.40;48.90;;;;;;4926859;28;19965;-52
2022/05/24 11:37:06;;;;;;;;;;;22.40;48.90;;;;;;4948692;28;19989;-54
2022/05/24 11:39:35;;;;;;;;;;;22.40;48.90;;;;;;4925436;28;19946;-54
2022/05/24 11:42:20;;;;;;;;;;;22.40;48.90;;;;;;4926908;29;19931;-57
2022/05/24 11:44:48;;;;;;;;;;;22.40;48.90;;;;;;4924769;28;19966;-56
2022/05/24 11:47:29;;;;;;;;;;;22.40;48.90;;;;;;4934439;28;19927;-56
2022/05/24 11:49:56;;;;;;;;;;;22.40;48.90;;;;;;4942241;28;20013;-57
2022/05/24 11:52:43;;;;;;;;;;;22.40;48.90;;;;;;4926078;29;19927;-56
2022/05/24 11:55:11;;;;;;;;;;;22.40;48.90;;;;;;4924440;28;19927;-51
2022/05/24 11:57:40;;;;;;;;;;;22.40;48.90;;;;;;4927531;28;19927;-49
2022/05/24 12:00:07;;;;;;;;;;;22.40;48.90;;;;;;4940558;28;20025;-51
2022/05/24 12:08:25;;;;;;;;;;;22.40;49.00;;;;;;4909895;28;19942;-53
2022/05/24 12:10:55;;;;;;;;;;;22.40;49.00;;;;;;4929517;28;19969;-48
2022/05/24 12:13:31;;;;;;;;;;;22.40;49.00;;;;;;4919332;28;20021;-50
2022/05/24 12:15:59;;;;;;;;;;;22.40;49.10;;;;;;4924190;28;20391;-51
2022/05/24 12:18:35;;;;;;;;;;;22.40;49.00;;;;;;4929284;29;19977;-53
2022/05/24 12:21:02;;;;;;;;;;;22.50;49.20;;;;;;4945434;28;19981;-46
2022/05/24 12:23:42;;;;;;;;;;;22.40;49.10;;;;;;4952438;28;19934;-45
2022/05/24 12:26:12;;;;;;;;;;;22.40;49.10;;;;;;4922174;29;20292;-49
2022/05/24 12:28:44;;;;;;;;;;;22.40;49.10;;;;;;4934974;28;19926;-47
2022/05/24 12:31:15;;;;;;;;;;;22.50;49.20;;;;;;4924596;29;20041;-46
2022/05/24 12:33:43;;;;;;;;;;;22.50;49.30;;;;;;4922378;28;19927;-48
2022/05/24 12:36:13;;;;;;;;;;;22.50;49.20;;;;;;4922891;28;20272;-46
2022/05/24 12:38:40;;;;;;;;;;;22.50;49.30;;;;;;4921124;28;19984;-51
2022/05/24 12:41:16;;;;;;;;;;;22.50;49.30;;;;;;4926009;28;19927;-49
2022/05/24 12:43:50;;;;;;;;;;;22.50;49.30;;;;;;4943891;28;19926;-48
2022/05/24 12:46:17;;;;;;;;;;;22.50;49.30;;;;;;4934159;28;20407;-49
2022/05/24 12:48:44;;;;;;;;;;;22.50;49.30;;;;;;4923031;28;20054;-51
2022/05/24 12:51:11;;;;;;;;;;;22.50;49.40;;;;;;4949545;28;20335;-47
2022/05/24 12:53:38;;;;;;;;;;;22.50;49.30;;;;;;4928670;28;20291;-52
2022/05/24 12:56:06;;;;;;;;;;;22.50;49.40;;;;;;4951833;28;19927;-48
2022/05/24 12:58:34;;;;;;;;;;;22.50;49.40;;;;;;4937030;28;19927;-46
2022/05/24 13:01:08;;;;;;;;;;;22.50;49.40;;;;;;4927712;28;20388;-46
2022/05/24 13:03:35;;;;;;;;;;;22.60;49.40;;;;;;4929161;28;19935;-47
2022/05/24 13:06:01;;;;;;;;;;;22.60;49.40;;;;;;4936230;28;19993;-47
2022/05/24 13:08:28;;;;;;;;;;;22.60;49.40;;;;;;4929459;28;20025;-50
2022/05/24 13:10:55;;;;;;;;;;;22.60;49.50;;;;;;4944560;28;19926;-48
2022/05/24 13:13:22;;;;;;;;;;;22.60;49.40;;;;;;4929285;28;19927;-49
2022/05/24 13:15:50;;;;;;;;;;;22.60;49.40;;;;;;4947370;28;20021;-50
2022/05/24 13:18:17;;;;;;;;;;;22.60;49.50;;;;;;4929176;28;19978;-46
2022/05/24 13:20:44;;;;;;;;;;;22.60;49.40;;;;;;4931153;28;19941;-51
2022/05/24 13:23:19;;;;;;;;;;;22.60;49.50;;;;;;4958525;28;19984;-53
2022/05/24 13:25:47;;;;;;;;;;;22.60;49.50;;;;;;4946864;28;20245;-47
2022/05/24 13:28:14;;;;;;;;;;;22.60;49.40;;;;;;4932199;28;20695;-46
2022/05/24 13:33:35;;;;;;;;;;;22.60;49.50;;;;;;5013288;28;19927;-55
2022/05/24 13:36:03;;;;;;;;;;;22.60;49.50;;;;;;4939409;28;19931;-57
2022/05/24 13:38:30;;;;;;;;;;;22.60;49.40;;;;;;4926580;28;20299;-58
2022/05/24 13:40:57;;;;;;;;;;;22.60;49.40;;;;;;4931518;28;19927;-58
2022/05/24 13:43:31;;;;;;;;;;;22.60;49.40;;;;;;4939327;28;19981;-57
2022/05/24 13:46:06;;;;;;;;;;;22.60;49.40;;;;;;4930566;28;20307;-56
2022/05/24 13:48:39;;;;;;;;;;;22.60;49.30;;;;;;4936008;28;19927;-53
2022/05/24 13:51:06;;;;;;;;;;;22.60;49.30;;;;;;4935418;28;19933;-55
2022/05/24 13:53:35;;;;;;;;;;;22.60;49.30;;;;;;4924650;28;19930;-57
2022/05/24 13:56:02;;;;;;;;;;;22.60;49.30;;;;;;4953775;28;19934;-58
2022/05/24 13:58:30;;;;;;;;;;;22.60;49.30;;;;;;4934168;28;20384;-57
2022/05/24 14:01:00;;;;;;;;;;;22.60;49.30;;;;;;4936442;28;19937;-57
2022/05/24 14:03:27;;;;;;;;;;;22.60;49.30;;;;;;4948511;28;20134;-60
2022/05/24 14:06:12;;;;;;;;;;;22.60;49.30;;;;;;4932300;28;20048;-55
2022/05/24 14:08:41;;;;;;;;;;;22.60;49.20;;;;;;5005084;28;20466;-58
2022/05/24 14:11:13;;;;;;;;;;;22.60;49.20;;;;;;4979867;28;20042;-53
2022/05/24 14:13:40;;;;;;;;;;;22.60;49.20;;;;;;4929409;28;20027;-57
2022/05/24 14:16:07;;;;;;;;;;;22.60;49.20;;;;;;4923000;28;19937;-57
2022/05/24 14:18:33;;;;;;;;;;;22.60;49.20;;;;;;4922115;28;20320;-56
2022/05/24 14:21:00;;;;;;;;;;;22.60;49.20;;;;;;4925774;28;19938;-55
2022/05/24 14:23:27;;;;;;;;;;;22.60;49.20;;;;;;4923039;28;20321;-56
2022/05/24 14:25:55;;;;;;;;;;;22.60;49.10;;;;;;4927496;28;19934;-58
2022/05/24 14:28:22;;;;;;;;;;;22.60;49.10;;;;;;4925842;28;19927;-57
2022/05/24 14:30:49;;;;;;;;;;;22.60;49.10;;;;;;4969982;28;19927;-57
2022/05/24 14:33:16;;;;;;;;;;;22.60;49.10;;;;;;4939885;28;20294;-57
2022/05/24 14:35:44;;;;;;;;;;;22.60;49.10;;;;;;4931034;28;19931;-56
2022/05/24 14:38:10;;;;;;;;;;;22.60;49.10;;;;;;4934892;28;19974;-55
2022/05/24 14:40:38;;;;;;;;;;;22.60;49.10;;;;;;4922245;28;19930;-54
2022/05/24 14:43:07;;;;;;;;;;;22.60;49.10;;;;;;4937622;28;19938;-55
2022/05/24 14:45:34;;;;;;;;;;;22.60;49.10;;;;;;4944249;28;19933;-54
2022/05/24 14:48:01;;;;;;;;;;;22.60;49.00;;;;;;4928512;28;20017;-58
2022/05/24 14:50:27;;;;;;;;;;;22.60;49.00;;;;;;4969360;28;19927;-58
2022/05/24 14:52:54;;;;;;;;;;;22.60;49.00;;;;;;4917727;28;20269;-59
2022/05/24 14:55:21;;;;;;;;;;;22.60;49.00;;;;;;4927465;28;19927;-56
2022/05/24 14:57:48;;;;;;;;;;;22.60;49.00;;;;;;4966549;28;20472;-58
2022/05/24 15:00:17;;;;;;;;;;;22.60;49.00;;;;;;4923859;28;20411;-59
2022/05/24 15:02:44;;;;;;;;;;;22.60;48.90;;;;;;4934666;28;20306;-60
2022/05/24 15:05:11;;;;;;;;;;;22.60;48.90;;;;;;4941957;28;19935;-58
2022/05/24 15:15:51;;;;;;;;;;;22.60;48.90;;;;;;4960526;28;19929;-57